createdAt,value
2022-10-26T00:01:36.281Z,23.93
2022-10-26T00:04:38.036Z,20.53
2022-10-26T00:10:42.158Z,23.30
2022-10-26T00:13:43.751Z,20.97
2022-10-26T00:16:45.296Z,20.87
2022-10-26T00:19:46.857Z,21.87
2022-10-26T00:22:48.448Z,22.00
2022-10-26T00:25:56.935Z,21.03
2022-10-26T00:28:58.569Z,25.10
2022-10-26T00:32:00.217Z,24.03
2022-10-26T00:35:10.581Z,18.10
2022-10-26T00:38:23.105Z,25.50
2022-10-26T00:41:26.385Z,25.73
2022-10-26T00:45:01.718Z,25.83
2022-10-26T00:48:07.384Z,22.53
2022-10-26T00:51:10.668Z,18.73
2022-10-26T00:54:16.254Z,15.63
2022-10-26T00:57:18.623Z,22.00
2022-10-26T01:00:20.593Z,18.63
2022-10-26T01:03:25.240Z,23.33
2022-10-26T01:06:28.627Z,22.10
2022-10-26T01:09:30.428Z,18.33
2022-10-26T01:12:32.009Z,23.93
2022-10-26T01:15:45.501Z,25.53
2022-10-26T01:19:05.120Z,22.17
2022-10-26T01:22:14.443Z,23.20
2022-10-26T01:25:16.020Z,17.20
2022-10-26T01:28:36.347Z,16.33
2022-10-26T01:31:42.632Z,23.57
2022-10-26T01:34:47.038Z,20.83
2022-10-26T01:37:52.903Z,20.40
2022-10-26T01:40:54.412Z,17.63
2022-10-26T01:44:01.506Z,14.13
2022-10-26T01:47:04.124Z,13.40
2022-10-26T01:50:06.133Z,21.63
2022-10-26T01:53:11.356Z,15.37
2022-10-26T01:56:21.080Z,17.30
2022-10-26T01:59:31.480Z,17.57
2022-10-26T02:02:51.846Z,17.63
2022-10-26T02:05:56.257Z,15.53
2022-10-26T02:09:19.970Z,16.43
2022-10-26T02:12:27.734Z,20.67
2022-10-26T02:15:38.932Z,16.73
2022-10-26T02:18:40.475Z,15.73
2022-10-26T02:21:45.189Z,18.13
2022-10-26T02:24:47.656Z,18.80
2022-10-26T02:27:51.258Z,20.07
2022-10-26T02:30:54.476Z,15.20
2022-10-26T02:33:57.105Z,16.23
2022-10-26T02:37:00.174Z,17.07
2022-10-26T02:40:04.470Z,15.17
2022-10-26T02:43:08.490Z,13.43
2022-10-26T02:46:12.156Z,14.00
2022-10-26T02:49:13.784Z,14.67
2022-10-26T02:52:15.390Z,11.70
2022-10-26T02:55:21.120Z,13.73
2022-10-26T02:58:30.502Z,17.13
2022-10-26T03:01:33.915Z,12.50
2022-10-26T03:04:35.757Z,21.27
2022-10-26T03:07:37.310Z,14.47
2022-10-26T03:10:43.042Z,19.80
2022-10-26T03:13:44.819Z,13.67
2022-10-26T03:16:46.499Z,14.53
2022-10-26T03:19:48.100Z,13.37
2022-10-26T03:22:49.641Z,13.10
2022-10-26T03:25:51.190Z,15.23
2022-10-26T03:28:52.834Z,15.33
2022-10-26T03:31:55.228Z,16.40
2022-10-26T03:34:58.174Z,13.47
2022-10-26T03:37:59.747Z,11.83
2022-10-26T03:41:01.380Z,13.30
2022-10-26T03:44:03.014Z,23.00
2022-10-26T03:47:04.665Z,16.83
2022-10-26T03:53:12.832Z,15.27
2022-10-26T03:56:14.397Z,16.03
2022-10-26T03:59:15.945Z,16.90
2022-10-26T04:02:17.523Z,19.23
2022-10-26T04:05:19.080Z,15.67
2022-10-26T04:08:20.877Z,13.53
2022-10-26T04:11:22.419Z,16.40
2022-10-26T04:14:24.062Z,17.50
2022-10-26T04:17:25.664Z,11.50
2022-10-26T04:20:27.878Z,15.20
2022-10-26T04:23:29.495Z,12.03
2022-10-26T04:26:31.056Z,28.17
2022-10-26T04:29:32.750Z,25.63
2022-10-26T04:32:34.345Z,18.43
2022-10-26T04:35:36.058Z,14.63
2022-10-26T04:38:37.643Z,13.47
2022-10-26T04:41:39.256Z,14.70
2022-10-26T04:44:40.950Z,10.80
2022-10-26T04:47:42.950Z,11.93
2022-10-26T04:50:50.162Z,13.57
2022-10-26T04:53:53.672Z,22.97
2022-10-26T04:56:55.291Z,22.97
2022-10-26T04:59:56.868Z,15.77
2022-10-26T05:03:02.448Z,16.20
2022-10-26T05:06:04.182Z,13.60
2022-10-26T05:09:05.881Z,12.50
2022-10-26T05:12:07.577Z,14.77
2022-10-26T05:15:11.951Z,16.40
2022-10-26T05:18:13.649Z,19.07
2022-10-26T05:21:19.430Z,16.37
2022-10-26T05:24:21.090Z,15.57
2022-10-26T05:27:22.648Z,19.73
2022-10-26T05:30:24.340Z,16.77
2022-10-26T05:33:26.081Z,17.97
2022-10-26T05:36:27.618Z,18.20
2022-10-26T05:39:29.181Z,18.57
2022-10-26T05:42:30.853Z,18.03
2022-10-26T05:45:32.408Z,15.27
2022-10-26T05:48:34.042Z,18.13
2022-10-26T05:51:37.245Z,20.37
2022-10-26T05:54:38.889Z,20.33
2022-10-26T05:57:40.764Z,16.93
2022-10-26T06:00:54.447Z,16.83
2022-10-26T06:04:02.687Z,16.20
2022-10-26T06:07:09.364Z,17.50
2022-10-26T06:10:11.160Z,12.37
2022-10-26T06:13:12.882Z,18.03
2022-10-26T06:16:14.487Z,15.80
2022-10-26T06:19:31.117Z,15.20
2022-10-26T06:22:44.025Z,22.30
2022-10-26T06:26:03.878Z,19.60
2022-10-26T06:29:08.271Z,18.40
2022-10-26T06:32:10.167Z,12.23
2022-10-26T06:35:17.335Z,18.30
2022-10-26T06:38:21.013Z,14.73
2022-10-26T06:41:22.850Z,14.53
2022-10-26T06:44:24.654Z,18.40
2022-10-26T06:47:39.150Z,17.00
2022-10-26T06:50:46.717Z,19.83
2022-10-26T06:53:51.959Z,15.80
2022-10-26T06:56:53.613Z,18.87
2022-10-26T06:59:57.638Z,14.93
2022-10-26T07:03:00.204Z,12.87
2022-10-26T07:06:02.009Z,15.63
2022-10-26T07:09:03.568Z,10.87
2022-10-26T07:12:05.316Z,12.77
2022-10-26T07:18:11.042Z,7.83
2022-10-26T07:21:12.812Z,10.17
2022-10-26T07:24:14.384Z,5.93
2022-10-26T07:27:15.928Z,9.80
2022-10-26T07:30:17.585Z,4.53
2022-10-26T07:33:19.915Z,5.57
2022-10-26T07:36:21.918Z,6.63
2022-10-26T07:39:23.637Z,7.20
2022-10-26T07:42:25.213Z,7.25
2022-10-26T07:45:27.791Z,5.43
2022-10-26T07:48:29.396Z,5.78
2022-10-26T07:51:31.047Z,3.83
2022-10-26T07:54:32.812Z,6.03
2022-10-26T07:57:34.577Z,6.53
2022-10-26T08:00:36.287Z,6.25
2022-10-26T08:03:37.915Z,4.57
2022-10-26T08:06:39.514Z,6.83
2022-10-26T08:09:41.089Z,7.03
2022-10-26T08:12:43.522Z,4.05
2022-10-26T08:15:45.390Z,6.45
2022-10-26T08:18:50.635Z,4.28
2022-10-26T08:21:52.285Z,5.70
2022-10-26T08:24:53.890Z,5.45
2022-10-26T08:27:55.576Z,3.92
2022-10-26T08:30:57.136Z,4.88
2022-10-26T08:33:59.615Z,5.45
2022-10-26T08:37:01.152Z,6.82
2022-10-26T08:40:06.067Z,3.38
2022-10-26T08:43:13.175Z,4.40
2022-10-26T08:46:20.348Z,2.95
2022-10-26T08:49:27.017Z,3.50
2022-10-26T08:52:36.473Z,5.70
2022-10-26T08:55:48.905Z,7.18
2022-10-26T08:58:53.546Z,6.20
2022-10-26T09:01:55.277Z,5.25
2022-10-26T09:04:59.287Z,4.78
2022-10-26T09:08:19.782Z,6.88
2022-10-26T09:11:28.269Z,5.82
2022-10-26T09:14:38.501Z,7.55
2022-10-26T09:17:58.803Z,4.25
2022-10-26T09:21:19.178Z,9.93
2022-10-26T09:24:24.092Z,6.00
2022-10-26T09:27:38.299Z,6.88
2022-10-26T09:30:40.099Z,8.50
2022-10-26T09:33:41.964Z,3.50
2022-10-26T09:36:43.489Z,5.07
2022-10-26T09:40:03.560Z,4.00
2022-10-26T09:43:07.745Z,6.90
2022-10-26T09:46:13.452Z,3.67
2022-10-26T09:49:16.449Z,6.93
2022-10-26T09:52:18.050Z,7.30
2022-10-26T09:55:21.891Z,5.27
2022-10-26T09:58:26.377Z,4.93
2022-10-26T10:01:35.486Z,3.73
2022-10-26T10:04:45.867Z,3.80
2022-10-26T10:07:47.499Z,4.67
2022-10-26T10:10:57.006Z,4.27
2022-10-26T10:14:05.806Z,4.10
2022-10-26T10:17:10.812Z,3.70
2022-10-26T10:20:18.018Z,6.07
2022-10-26T10:23:29.853Z,4.63
2022-10-26T10:26:31.474Z,6.60
2022-10-26T10:29:34.759Z,6.20
2022-10-26T10:32:39.185Z,4.37
2022-10-26T10:35:48.172Z,3.03
2022-10-26T10:38:50.522Z,2.87
2022-10-26T10:41:52.075Z,4.03
2022-10-26T10:44:55.327Z,2.97
2022-10-26T10:47:59.674Z,2.47
2022-10-26T10:51:03.327Z,2.83
2022-10-26T10:54:05.742Z,5.67
2022-10-26T10:57:33.626Z,2.77
2022-10-26T11:00:36.849Z,2.30
2022-10-26T11:03:47.925Z,3.43
2022-10-26T11:06:50.062Z,4.07
2022-10-26T11:13:02.954Z,2.40
2022-10-26T11:16:07.685Z,4.13
2022-10-26T11:19:15.189Z,5.20
2022-10-26T11:22:20.814Z,2.00
2022-10-26T11:25:28.446Z,3.43
2022-10-26T11:28:51.747Z,2.33
2022-10-26T11:32:12.205Z,4.00
2022-10-26T11:35:24.785Z,3.83
2022-10-26T11:38:56.455Z,2.13
2022-10-26T11:42:12.250Z,3.20
2022-10-26T11:45:23.735Z,3.20
2022-10-26T11:48:31.255Z,4.93
2022-10-26T11:51:32.896Z,3.93
2022-10-26T11:54:36.401Z,3.20
2022-10-26T11:57:38.322Z,2.03
2022-10-26T12:00:48.404Z,2.83
2022-10-26T12:03:52.431Z,2.67
2022-10-26T12:06:54.802Z,2.20
2022-10-26T12:09:57.334Z,2.70
2022-10-26T12:13:25.408Z,2.57
2022-10-26T12:16:33.101Z,3.30
2022-10-26T12:19:34.704Z,4.23
2022-10-26T12:22:40.172Z,2.83
2022-10-26T12:25:41.826Z,2.23
2022-10-26T12:28:43.513Z,2.07
2022-10-26T12:31:45.195Z,2.93
2022-10-26T12:34:47.181Z,4.40
2022-10-26T12:37:48.920Z,3.93
2022-10-26T12:41:06.511Z,5.37
2022-10-26T12:44:26.771Z,3.00
2022-10-26T12:47:28.278Z,3.40
2022-10-26T12:50:29.904Z,3.93
2022-10-26T12:53:41.058Z,5.33
2022-10-26T12:56:55.113Z,2.27
2022-10-26T13:00:05.281Z,3.10
2022-10-26T13:03:06.848Z,3.20
2022-10-26T13:06:11.398Z,3.67
2022-10-26T13:09:24.178Z,3.67
2022-10-26T13:12:27.002Z,2.53
2022-10-26T13:15:48.066Z,2.00
2022-10-26T13:18:49.809Z,3.43
2022-10-26T13:21:51.680Z,2.53
2022-10-26T13:24:53.381Z,3.70
2022-10-26T13:27:58.554Z,3.13
2022-10-26T13:31:00.209Z,2.00
2022-10-26T13:34:04.243Z,3.60
2022-10-26T13:37:05.869Z,5.27
2022-10-26T13:40:07.965Z,4.07
2022-10-26T13:43:14.659Z,5.13
2022-10-26T13:46:27.438Z,4.97
2022-10-26T13:49:38.211Z,4.57
2022-10-26T13:52:41.305Z,3.20
2022-10-26T13:55:52.905Z,3.47
2022-10-26T13:59:00.306Z,4.23
2022-10-26T14:02:14.892Z,6.37
2022-10-26T14:05:17.610Z,1.87
2022-10-26T14:08:19.932Z,3.63
2022-10-26T14:11:23.185Z,2.43
2022-10-26T14:14:24.832Z,5.23
2022-10-26T14:17:26.534Z,3.43
2022-10-26T14:20:28.990Z,2.23
2022-10-26T14:23:51.820Z,2.57
2022-10-26T14:26:53.395Z,3.63
2022-10-26T14:30:22.117Z,2.63
2022-10-26T14:33:17.890Z,2.87
2022-10-26T14:36:21.053Z,5.87
2022-10-26T14:39:34.949Z,4.13
2022-10-26T14:42:39.722Z,6.37
2022-10-26T14:45:49.464Z,9.77
2022-10-26T14:48:53.305Z,14.50
2022-10-26T14:52:05.426Z,11.77
2022-10-26T14:55:14.385Z,16.33
2022-10-26T15:01:47.681Z,11.00
2022-10-26T15:05:02.914Z,16.93
2022-10-26T15:08:04.528Z,21.07
2022-10-26T15:11:09.021Z,12.80
2022-10-26T15:14:12.373Z,11.07
2022-10-26T15:17:19.454Z,9.50
2022-10-26T15:20:22.523Z,14.37
2022-10-26T15:23:24.854Z,15.23
2022-10-26T15:26:26.703Z,15.77
2022-10-26T15:29:37.211Z,6.87
2022-10-26T15:32:38.858Z,10.17
2022-10-26T15:35:40.615Z,11.93
2022-10-26T15:38:43.101Z,12.53
2022-10-26T15:41:46.321Z,9.67
2022-10-26T15:44:49.822Z,12.87
2022-10-26T15:47:52.800Z,9.87
2022-10-26T15:50:54.695Z,12.77
2022-10-26T15:54:00.337Z,7.33
2022-10-26T15:57:02.172Z,10.43
2022-10-26T16:00:04.905Z,9.00
2022-10-26T16:03:09.796Z,14.40
2022-10-26T16:06:17.046Z,14.97
2022-10-26T16:09:21.041Z,13.23
2022-10-26T16:12:22.974Z,12.90
2022-10-26T16:15:24.938Z,16.63
2022-10-26T16:18:26.600Z,18.07
2022-10-26T16:21:28.302Z,19.43
2022-10-26T16:24:30.719Z,17.80
2022-10-26T16:27:32.328Z,17.10
2022-10-26T16:30:34.067Z,16.70
2022-10-26T16:33:35.657Z,14.63
2022-10-26T16:36:38.610Z,14.77
2022-10-26T16:39:42.565Z,16.33
2022-10-26T16:42:44.730Z,11.90
2022-10-26T16:45:46.338Z,7.70
2022-10-26T16:48:48.945Z,10.17
2022-10-26T16:51:52.558Z,10.73
2022-10-26T16:54:55.013Z,8.17
2022-10-26T16:57:56.566Z,10.93
2022-10-26T17:00:58.425Z,12.97
2022-10-26T17:04:01.010Z,11.43
2022-10-26T17:07:02.586Z,11.63
2022-10-26T17:10:14.894Z,8.60
2022-10-26T17:13:19.130Z,9.10
2022-10-26T17:16:21.849Z,8.73
2022-10-26T17:19:23.414Z,12.07
2022-10-26T17:22:25.083Z,10.73
2022-10-26T17:25:26.635Z,10.97
2022-10-26T17:28:28.363Z,9.70
2022-10-26T17:31:30.047Z,10.33
2022-10-26T17:34:31.602Z,9.33
2022-10-26T17:37:34.135Z,7.67
2022-10-26T17:40:36.883Z,9.03
2022-10-26T17:43:41.142Z,8.43
2022-10-26T17:46:42.823Z,12.63
2022-10-26T17:49:44.536Z,9.50
2022-10-26T17:52:47.586Z,11.47
2022-10-26T17:55:49.260Z,16.07
2022-10-26T17:58:52.380Z,10.10
2022-10-26T18:01:54.007Z,6.03
2022-10-26T18:04:56.094Z,6.03
2022-10-26T18:07:58.062Z,16.20
2022-10-26T18:10:59.802Z,6.23
2022-10-26T18:14:03.750Z,7.83
2022-10-26T18:17:05.312Z,5.53
2022-10-26T18:20:07.571Z,5.27
2022-10-26T18:23:09.178Z,5.63
2022-10-26T18:26:18.452Z,6.47
2022-10-26T18:29:20.502Z,5.30
2022-10-26T18:32:22.105Z,5.87
2022-10-26T18:35:25.247Z,6.70
2022-10-26T18:38:30.768Z,10.57
2022-10-26T18:41:32.430Z,7.83
2022-10-26T18:44:34.116Z,7.53
2022-10-26T18:47:35.815Z,8.40
2022-10-26T18:50:37.473Z,6.67
2022-10-26T18:53:39.929Z,14.40
2022-10-26T18:56:41.562Z,18.43
2022-10-26T18:59:43.184Z,23.70
2022-10-26T19:02:46.445Z,7.30
2022-10-26T19:05:50.388Z,7.93
2022-10-26T19:08:52.490Z,13.57
2022-10-26T19:11:54.019Z,12.43
2022-10-26T19:14:55.619Z,9.80
2022-10-26T19:17:57.915Z,18.67
2022-10-26T19:21:00.717Z,12.00
2022-10-26T19:24:02.629Z,4.47
2022-10-26T19:27:04.342Z,5.40
2022-10-26T19:30:06.237Z,4.53
2022-10-26T19:33:07.859Z,6.10
2022-10-26T19:36:11.398Z,6.63
2022-10-26T19:39:16.651Z,13.57
2022-10-26T19:42:18.246Z,9.33
2022-10-26T19:45:19.807Z,7.33
2022-10-26T19:48:21.394Z,8.13
2022-10-26T19:51:23.400Z,12.97
2022-10-26T19:54:24.990Z,7.80
2022-10-26T19:57:26.563Z,8.53
2022-10-26T20:00:28.351Z,7.63
2022-10-26T20:03:30.413Z,8.63
2022-10-26T20:06:32.155Z,6.97
2022-10-26T20:09:33.855Z,8.77
2022-10-26T20:12:35.721Z,3.93
2022-10-26T20:15:37.570Z,5.53
2022-10-26T20:18:43.931Z,3.43
2022-10-26T20:21:49.273Z,4.73
2022-10-26T20:24:50.958Z,6.57
2022-10-26T20:27:52.956Z,6.73
2022-10-26T20:30:54.877Z,4.47
2022-10-26T20:33:56.467Z,4.33
2022-10-26T20:36:58.069Z,4.00
2022-10-26T20:39:59.849Z,5.57
2022-10-26T20:43:01.641Z,8.47
2022-10-26T20:46:03.374Z,5.37
2022-10-26T20:49:05.074Z,4.20
2022-10-26T20:52:22.145Z,10.10
2022-10-26T20:55:26.590Z,9.17
2022-10-26T20:58:41.938Z,5.47
2022-10-26T21:01:43.551Z,6.10
2022-10-26T21:04:45.138Z,5.13
2022-10-26T21:07:46.864Z,6.27
2022-10-26T21:10:51.421Z,5.17
2022-10-26T21:13:53.951Z,6.00
2022-10-26T21:16:55.517Z,6.67
2022-10-26T21:19:57.189Z,3.77
2022-10-26T21:22:58.873Z,5.37
2022-10-26T21:26:00.677Z,6.67
2022-10-26T21:29:03.284Z,5.27
2022-10-26T21:32:05.051Z,6.87
2022-10-26T21:35:06.732Z,6.10
2022-10-26T21:38:08.259Z,5.17
2022-10-26T21:41:11.232Z,5.83
2022-10-26T21:44:24.596Z,4.00
2022-10-26T21:47:34.451Z,6.23
2022-10-26T21:50:36.053Z,2.67
2022-10-26T21:53:37.630Z,4.83
2022-10-26T21:56:39.301Z,4.93
2022-10-26T21:59:40.827Z,5.10
2022-10-26T22:02:42.349Z,5.40
2022-10-26T22:05:45.890Z,5.30
2022-10-26T22:08:47.621Z,4.80
2022-10-26T22:11:49.249Z,5.33
2022-10-26T22:14:50.835Z,7.67
2022-10-26T22:17:52.694Z,4.23
2022-10-26T22:20:58.127Z,3.87
2022-10-26T22:23:59.687Z,6.60
2022-10-26T22:27:01.255Z,7.57
2022-10-26T22:30:02.894Z,3.50
2022-10-26T22:33:04.459Z,4.00
2022-10-26T22:36:06.817Z,4.40
2022-10-26T22:39:08.315Z,4.93
2022-10-26T22:42:09.865Z,9.13
2022-10-26T22:45:11.431Z,4.03
2022-10-26T22:48:13.103Z,3.93
2022-10-26T22:51:16.059Z,4.00
2022-10-26T22:54:17.653Z,6.03
2022-10-26T22:57:19.235Z,3.87
2022-10-26T23:00:20.897Z,5.40
2022-10-26T23:03:22.511Z,6.00
2022-10-26T23:06:25.327Z,4.43
2022-10-26T23:09:26.821Z,3.83
2022-10-26T23:12:28.326Z,5.53
2022-10-26T23:15:30.031Z,5.97
2022-10-26T23:18:31.674Z,4.17
2022-10-26T23:21:33.232Z,3.60
2022-10-26T23:24:34.762Z,3.53
2022-10-26T23:27:36.328Z,2.60
2022-10-26T23:30:38.161Z,4.93
2022-10-26T23:33:39.803Z,3.93
2022-10-26T23:36:41.346Z,3.83
2022-10-26T23:39:42.885Z,4.70
2022-10-26T23:42:44.447Z,3.37
2022-10-26T23:45:46.290Z,3.03
2022-10-26T23:48:48.007Z,3.30
2022-10-26T23:51:49.551Z,3.90
2022-10-26T23:54:51.133Z,4.57
2022-10-26T23:57:52.900Z,3.43
